sensor_id;sensor_type;location;lat;lon;timestamp;temperature;humidity
62589;DHT22;58504;48.770;9.148;2022-12-18T00:00:08;15.40;57.30
62589;DHT22;58504;48.770;9.148;2022-12-18T00:02:35;15.40;57.20
62589;DHT22;58504;48.770;9.148;2022-12-18T00:05:01;15.30;57.20
62589;DHT22;58504;48.770;9.148;2022-12-18T00:07:28;15.30;57.30
62589;DHT22;58504;48.770;9.148;2022-12-18T00:09:55;15.30;57.90
62589;DHT22;58504;48.770;9.148;2022-12-18T00:12:22;15.40;58.40
62589;DHT22;58504;48.770;9.148;2022-12-18T00:14:48;15.50;58.40
62589;DHT22;58504;48.770;9.148;2022-12-18T00:17:16;15.70;57.90
62589;DHT22;58504;48.770;9.148;2022-12-18T00:19:43;15.90;57.40
62589;DHT22;58504;48.770;9.148;2022-12-18T00:22:10;16.00;56.90
62589;DHT22;58504;48.770;9.148;2022-12-18T00:24:36;16.10;56.40
62589;DHT22;58504;48.770;9.148;2022-12-18T00:27:03;16.20;56.10
62589;DHT22;58504;48.770;9.148;2022-12-18T00:29:30;16.30;56.00
62589;DHT22;58504;48.770;9.148;2022-12-18T00:31:57;16.30;55.70
62589;DHT22;58504;48.770;9.148;2022-12-18T00:34:25;16.30;55.60
62589;DHT22;58504;48.770;9.148;2022-12-18T00:36:51;16.30;55.70
62589;DHT22;58504;48.770;9.148;2022-12-18T00:39:18;16.40;55.80
62589;DHT22;58504;48.770;9.148;2022-12-18T00:41:45;16.40;56.20
62589;DHT22;58504;48.770;9.148;2022-12-18T00:44:29;16.40;56.40
62589;DHT22;58504;48.770;9.148;2022-12-18T00:46:56;16.40;56.40
62589;DHT22;58504;48.770;9.148;2022-12-18T00:49:24;16.30;56.40
62589;DHT22;58504;48.770;9.148;2022-12-18T00:51:51;16.30;56.40
62589;DHT22;58504;48.770;9.148;2022-12-18T00:54:18;16.30;56.40
62589;DHT22;58504;48.770;9.148;2022-12-18T00:56:44;16.30;56.70
62589;DHT22;58504;48.770;9.148;2022-12-18T00:59:11;16.30;56.70
62589;DHT22;58504;48.770;9.148;2022-12-18T01:01:38;16.30;56.80
62589;DHT22;58504;48.770;9.148;2022-12-18T01:04:05;16.30;56.90
62589;DHT22;58504;48.770;9.148;2022-12-18T01:06:35;16.20;56.80
62589;DHT22;58504;48.770;9.148;2022-12-18T01:09:02;16.20;56.80
62589;DHT22;58504;48.770;9.148;2022-12-18T01:11:28;16.20;56.80
62589;DHT22;58504;48.770;9.148;2022-12-18T01:13:55;16.20;57.00
62589;DHT22;58504;48.770;9.148;2022-12-18T01:16:22;16.10;56.80
62589;DHT22;58504;48.770;9.148;2022-12-18T01:18:52;16.10;56.80
62589;DHT22;58504;48.770;9.148;2022-12-18T01:21:19;16.10;56.90
62589;DHT22;58504;48.770;9.148;2022-12-18T01:23:51;16.10;56.80
62589;DHT22;58504;48.770;9.148;2022-12-18T01:26:18;16.00;56.70
62589;DHT22;58504;48.770;9.148;2022-12-18T01:28:45;16.00;56.70
62589;DHT22;58504;48.770;9.148;2022-12-18T01:31:14;16.00;56.80
62589;DHT22;58504;48.770;9.148;2022-12-18T01:33:41;16.00;56.80
62589;DHT22;58504;48.770;9.148;2022-12-18T01:36:14;15.90;56.70
62589;DHT22;58504;48.770;9.148;2022-12-18T01:38:41;15.90;56.80
62589;DHT22;58504;48.770;9.148;2022-12-18T01:41:09;15.90;56.80
62589;DHT22;58504;48.770;9.148;2022-12-18T01:43:48;15.90;56.90
62589;DHT22;58504;48.770;9.148;2022-12-18T01:46:16;15.80;56.80
62589;DHT22;58504;48.770;9.148;2022-12-18T01:48:44;15.90;56.90
62589;DHT22;58504;48.770;9.148;2022-12-18T01:51:11;15.80;56.90
62589;DHT22;58504;48.770;9.148;2022-12-18T01:53:42;15.80;57.00
62589;DHT22;58504;48.770;9.148;2022-12-18T01:56:14;15.80;57.00
62589;DHT22;58504;48.770;9.148;2022-12-18T01:58:52;15.80;57.10
62589;DHT22;58504;48.770;9.148;2022-12-18T02:01:21;15.70;57.00
62589;DHT22;58504;48.770;9.148;2022-12-18T02:03:48;15.70;57.00
62589;DHT22;58504;48.770;9.148;2022-12-18T02:06:17;15.70;57.10
62589;DHT22;58504;48.770;9.148;2022-12-18T02:08:57;15.70;57.00
62589;DHT22;58504;48.770;9.148;2022-12-18T02:11:34;15.70;56.90
62589;DHT22;58504;48.770;9.148;2022-12-18T02:14:09;15.70;57.00
62589;DHT22;58504;48.770;9.148;2022-12-18T02:16:44;15.60;56.90
62589;DHT22;58504;48.770;9.148;2022-12-18T02:19:25;15.60;56.90
62589;DHT22;58504;48.770;9.148;2022-12-18T02:22:00;15.60;56.90
62589;DHT22;58504;48.770;9.148;2022-12-18T02:24:34;15.60;57.00
62589;DHT22;58504;48.770;9.148;2022-12-18T02:27:04;15.50;57.00
62589;DHT22;58504;48.770;9.148;2022-12-18T02:29:34;15.50;56.90
62589;DHT22;58504;48.770;9.148;2022-12-18T02:32:06;15.50;57.00
62589;DHT22;58504;48.770;9.148;2022-12-18T02:34:38;15.50;57.00
62589;DHT22;58504;48.770;9.148;2022-12-18T02:37:07;15.50;57.00
62589;DHT22;58504;48.770;9.148;2022-12-18T02:39:37;15.40;57.00
62589;DHT22;58504;48.770;9.148;2022-12-18T02:42:05;15.40;57.00
62589;DHT22;58504;48.770;9.148;2022-12-18T02:44:33;15.40;56.90
62589;DHT22;58504;48.770;9.148;2022-12-18T02:47:00;15.40;56.90
62589;DHT22;58504;48.770;9.148;2022-12-18T02:49:34;15.40;57.00
62589;DHT22;58504;48.770;9.148;2022-12-18T02:52:07;15.40;57.00
62589;DHT22;58504;48.770;9.148;2022-12-18T02:54:47;15.40;57.00
62589;DHT22;58504;48.770;9.148;2022-12-18T02:57:22;15.40;57.00
62589;DHT22;58504;48.770;9.148;2022-12-18T02:59:57;15.30;56.90
62589;DHT22;58504;48.770;9.148;2022-12-18T03:02:27;15.30;57.00
62589;DHT22;58504;48.770;9.148;2022-12-18T03:05:01;15.30;56.90
62589;DHT22;58504;48.770;9.148;2022-12-18T03:07:36;15.30;57.00
62589;DHT22;58504;48.770;9.148;2022-12-18T03:10:06;15.30;57.00
62589;DHT22;58504;48.770;9.148;2022-12-18T03:12:38;15.30;57.00
62589;DHT22;58504;48.770;9.148;2022-12-18T03:15:10;15.30;57.00
62589;DHT22;58504;48.770;9.148;2022-12-18T03:17:41;15.20;56.90
62589;DHT22;58504;48.770;9.148;2022-12-18T03:20:15;15.20;57.00
62589;DHT22;58504;48.770;9.148;2022-12-18T03:22:44;15.20;56.90
62589;DHT22;58504;48.770;9.148;2022-12-18T03:25:13;15.20;56.90
62589;DHT22;58504;48.770;9.148;2022-12-18T03:27:46;15.20;56.90
62589;DHT22;58504;48.770;9.148;2022-12-18T03:30:15;15.20;56.90
62589;DHT22;58504;48.770;9.148;2022-12-18T03:32:46;15.20;56.90
62589;DHT22;58504;48.770;9.148;2022-12-18T03:35:18;15.20;56.90
62589;DHT22;58504;48.770;9.148;2022-12-18T03:37:45;15.20;56.90
62589;DHT22;58504;48.770;9.148;2022-12-18T03:40:12;15.20;56.90
62589;DHT22;58504;48.770;9.148;2022-12-18T03:42:47;15.20;56.90
62589;DHT22;58504;48.770;9.148;2022-12-18T03:45:20;15.10;56.80
62589;DHT22;58504;48.770;9.148;2022-12-18T03:47:57;15.10;56.80
62589;DHT22;58504;48.770;9.148;2022-12-18T03:50:29;15.10;56.80
62589;DHT22;58504;48.770;9.148;2022-12-18T03:53:07;15.10;56.90
62589;DHT22;58504;48.770;9.148;2022-12-18T03:55:36;15.10;56.80
62589;DHT22;58504;48.770;9.148;2022-12-18T03:58:06;15.10;56.80
62589;DHT22;58504;48.770;9.148;2022-12-18T04:00:34;15.10;56.80
62589;DHT22;58504;48.770;9.148;2022-12-18T04:03:02;15.00;56.70
62589;DHT22;58504;48.770;9.148;2022-12-18T04:05:32;15.00;56.70
62589;DHT22;58504;48.770;9.148;2022-12-18T04:08:00;15.00;56.60
62589;DHT22;58504;48.770;9.148;2022-12-18T04:10:27;15.00;56.70
62589;DHT22;58504;48.770;9.148;2022-12-18T04:12:56;15.00;56.70
62589;DHT22;58504;48.770;9.148;2022-12-18T04:15:24;15.00;56.70
62589;DHT22;58504;48.770;9.148;2022-12-18T04:17:51;15.00;57.30
62589;DHT22;58504;48.770;9.148;2022-12-18T04:20:18;14.90;56.60
62589;DHT22;58504;48.770;9.148;2022-12-18T04:22:45;14.90;56.70
62589;DHT22;58504;48.770;9.148;2022-12-18T04:25:11;14.90;56.70
62589;DHT22;58504;48.770;9.148;2022-12-18T04:27:38;14.90;56.60
62589;DHT22;58504;48.770;9.148;2022-12-18T04:30:06;14.90;56.70
62589;DHT22;58504;48.770;9.148;2022-12-18T04:32:34;14.90;56.60
62589;DHT22;58504;48.770;9.148;2022-12-18T04:35:01;15.10;56.40
62589;DHT22;58504;48.770;9.148;2022-12-18T04:37:29;15.40;56.20
62589;DHT22;58504;48.770;9.148;2022-12-18T04:39:56;15.60;55.60
62589;DHT22;58504;48.770;9.148;2022-12-18T04:42:23;15.90;54.90
62589;DHT22;58504;48.770;9.148;2022-12-18T04:44:49;16.30;54.30
62589;DHT22;58504;48.770;9.148;2022-12-18T04:47:16;16.50;53.80
62589;DHT22;58504;48.770;9.148;2022-12-18T04:49:44;16.80;53.00
62589;DHT22;58504;48.770;9.148;2022-12-18T04:52:11;17.10;52.60
62589;DHT22;58504;48.770;9.148;2022-12-18T04:54:37;17.20;52.10
62589;DHT22;58504;48.770;9.148;2022-12-18T04:57:04;17.40;51.90
62589;DHT22;58504;48.770;9.148;2022-12-18T04:59:31;17.60;51.70
62589;DHT22;58504;48.770;9.148;2022-12-18T05:01:58;17.70;51.30
62589;DHT22;58504;48.770;9.148;2022-12-18T05:04:24;17.70;51.00
62589;DHT22;58504;48.770;9.148;2022-12-18T05:06:52;17.80;50.90
62589;DHT22;58504;48.770;9.148;2022-12-18T05:09:19;17.90;50.70
62589;DHT22;58504;48.770;9.148;2022-12-18T05:11:46;18.00;50.50
62589;DHT22;58504;48.770;9.148;2022-12-18T05:14:13;18.00;50.40
62589;DHT22;58504;48.770;9.148;2022-12-18T05:16:39;18.10;50.40
62589;DHT22;58504;48.770;9.148;2022-12-18T05:19:06;18.10;50.30
62589;DHT22;58504;48.770;9.148;2022-12-18T05:21:33;18.00;50.20
62589;DHT22;58504;48.770;9.148;2022-12-18T05:24:01;18.00;50.30
62589;DHT22;58504;48.770;9.148;2022-12-18T05:26:27;18.00;50.30
62589;DHT22;58504;48.770;9.148;2022-12-18T05:28:54;17.90;50.40
62589;DHT22;58504;48.770;9.148;2022-12-18T05:31:22;17.80;50.30
62589;DHT22;58504;48.770;9.148;2022-12-18T05:33:49;17.70;50.50
62589;DHT22;58504;48.770;9.148;2022-12-18T05:36:16;17.70;50.60
62589;DHT22;58504;48.770;9.148;2022-12-18T05:38:43;17.60;50.90
62589;DHT22;58504;48.770;9.148;2022-12-18T05:41:11;17.50;51.00
62589;DHT22;58504;48.770;9.148;2022-12-18T05:43:38;17.50;51.10
62589;DHT22;58504;48.770;9.148;2022-12-18T05:46:06;17.40;51.30
62589;DHT22;58504;48.770;9.148;2022-12-18T05:48:33;17.30;51.40
62589;DHT22;58504;48.770;9.148;2022-12-18T05:51:05;17.30;51.80
62589;DHT22;58504;48.770;9.148;2022-12-18T05:53:32;17.20;52.10
62589;DHT22;58504;48.770;9.148;2022-12-18T05:56:01;17.10;52.30
62589;DHT22;58504;48.770;9.148;2022-12-18T05:58:30;17.00;52.50
62589;DHT22;58504;48.770;9.148;2022-12-18T06:00:57;16.90;52.70
62589;DHT22;58504;48.770;9.148;2022-12-18T06:03:24;16.90;53.10
62589;DHT22;58504;48.770;9.148;2022-12-18T06:05:51;16.90;53.50
62589;DHT22;58504;48.770;9.148;2022-12-18T06:08:18;16.80;53.70
62589;DHT22;58504;48.770;9.148;2022-12-18T06:10:50;16.80;53.90
62589;DHT22;58504;48.770;9.148;2022-12-18T06:13:18;16.70;54.00
62589;DHT22;58504;48.770;9.148;2022-12-18T06:15:46;16.70;54.10
62589;DHT22;58504;48.770;9.148;2022-12-18T06:18:13;16.70;54.20
62589;DHT22;58504;48.770;9.148;2022-12-18T06:20:39;16.60;54.30
62589;DHT22;58504;48.770;9.148;2022-12-18T06:23:07;16.60;54.50
62589;DHT22;58504;48.770;9.148;2022-12-18T06:25:38;16.60;54.50
62589;DHT22;58504;48.770;9.148;2022-12-18T06:28:04;16.60;54.60
62589;DHT22;58504;48.770;9.148;2022-12-18T06:30:31;16.50;54.60
62589;DHT22;58504;48.770;9.148;2022-12-18T06:32:59;16.50;54.80
62589;DHT22;58504;48.770;9.148;2022-12-18T06:35:26;16.50;55.00
62589;DHT22;58504;48.770;9.148;2022-12-18T06:37:53;16.40;55.50
62589;DHT22;58504;48.770;9.148;2022-12-18T06:40:20;16.40;54.80
62589;DHT22;58504;48.770;9.148;2022-12-18T06:42:47;16.40;54.90
62589;DHT22;58504;48.770;9.148;2022-12-18T06:45:13;16.40;55.10
62589;DHT22;58504;48.770;9.148;2022-12-18T06:47:40;16.40;55.30
62589;DHT22;58504;48.770;9.148;2022-12-18T06:50:09;16.30;55.20
62589;DHT22;58504;48.770;9.148;2022-12-18T06:52:35;16.30;55.50
62589;DHT22;58504;48.770;9.148;2022-12-18T06:55:03;16.30;55.50
62589;DHT22;58504;48.770;9.148;2022-12-18T06:57:30;16.30;55.60
62589;DHT22;58504;48.770;9.148;2022-12-18T06:59:56;16.30;55.60
62589;DHT22;58504;48.770;9.148;2022-12-18T07:02:23;16.20;55.60
62589;DHT22;58504;48.770;9.148;2022-12-18T07:04:50;16.20;55.60
62589;DHT22;58504;48.770;9.148;2022-12-18T07:07:18;16.20;55.70
62589;DHT22;58504;48.770;9.148;2022-12-18T07:09:45;16.20;55.80
62589;DHT22;58504;48.770;9.148;2022-12-18T07:12:11;16.20;55.80
62589;DHT22;58504;48.770;9.148;2022-12-18T07:14:38;16.20;55.80
62589;DHT22;58504;48.770;9.148;2022-12-18T07:17:05;16.20;55.80
62589;DHT22;58504;48.770;9.148;2022-12-18T07:19:32;16.20;55.70
62589;DHT22;58504;48.770;9.148;2022-12-18T07:21:59;16.20;55.70
62589;DHT22;58504;48.770;9.148;2022-12-18T07:24:27;16.10;55.70
62589;DHT22;58504;48.770;9.148;2022-12-18T07:26:54;16.10;55.80
62589;DHT22;58504;48.770;9.148;2022-12-18T07:29:21;16.10;55.90
62589;DHT22;58504;48.770;9.148;2022-12-18T07:31:48;16.10;55.90
62589;DHT22;58504;48.770;9.148;2022-12-18T07:34:15;16.10;55.90
62589;DHT22;58504;48.770;9.148;2022-12-18T07:36:42;16.10;56.00
62589;DHT22;58504;48.770;9.148;2022-12-18T07:39:10;16.10;56.00
62589;DHT22;58504;48.770;9.148;2022-12-18T07:41:38;16.10;56.00
62589;DHT22;58504;48.770;9.148;2022-12-18T07:44:09;16.10;55.90
62589;DHT22;58504;48.770;9.148;2022-12-18T07:46:36;16.10;56.00
62589;DHT22;58504;48.770;9.148;2022-12-18T07:49:02;16.10;56.00
62589;DHT22;58504;48.770;9.148;2022-12-18T07:51:29;16.10;56.00
62589;DHT22;58504;48.770;9.148;2022-12-18T07:53:56;16.10;56.00
62589;DHT22;58504;48.770;9.148;2022-12-18T07:56:23;16.10;56.10
62589;DHT22;58504;48.770;9.148;2022-12-18T07:58:51;16.10;56.20
62589;DHT22;58504;48.770;9.148;2022-12-18T08:01:18;16.10;56.10
62589;DHT22;58504;48.770;9.148;2022-12-18T08:03:45;16.10;56.10
62589;DHT22;58504;48.770;9.148;2022-12-18T08:06:11;16.10;56.00
62589;DHT22;58504;48.770;9.148;2022-12-18T08:08:38;16.00;56.00
62589;DHT22;58504;48.770;9.148;2022-12-18T08:11:06;16.10;56.20
62589;DHT22;58504;48.770;9.148;2022-12-18T08:13:33;16.00;56.20
62589;DHT22;58504;48.770;9.148;2022-12-18T08:16:04;16.10;56.20
62589;DHT22;58504;48.770;9.148;2022-12-18T08:18:32;16.00;56.10
62589;DHT22;58504;48.770;9.148;2022-12-18T08:21:08;16.00;56.10
62589;DHT22;58504;48.770;9.148;2022-12-18T08:23:34;16.00;56.30
62589;DHT22;58504;48.770;9.148;2022-12-18T08:26:01;16.00;56.20
62589;DHT22;58504;48.770;9.148;2022-12-18T08:28:28;16.10;56.10
62589;DHT22;58504;48.770;9.148;2022-12-18T08:30:55;16.10;56.00
62589;DHT22;58504;48.770;9.148;2022-12-18T08:33:23;16.00;56.00
62589;DHT22;58504;48.770;9.148;2022-12-18T08:35:50;16.00;56.00
62589;DHT22;58504;48.770;9.148;2022-12-18T08:38:16;16.00;56.00
62589;DHT22;58504;48.770;9.148;2022-12-18T08:40:43;16.10;56.10
62589;DHT22;58504;48.770;9.148;2022-12-18T08:43:10;16.00;56.00
62589;DHT22;58504;48.770;9.148;2022-12-18T08:45:55;16.00;56.00
62589;DHT22;58504;48.770;9.148;2022-12-18T08:48:23;16.00;56.00
62589;DHT22;58504;48.770;9.148;2022-12-18T08:50:54;16.00;56.00
62589;DHT22;58504;48.770;9.148;2022-12-18T08:53:21;16.10;56.00
62589;DHT22;58504;48.770;9.148;2022-12-18T08:55:48;16.00;55.90
62589;DHT22;58504;48.770;9.148;2022-12-18T08:58:14;16.00;56.00
62589;DHT22;58504;48.770;9.148;2022-12-18T09:00:41;16.10;56.00
62589;DHT22;58504;48.770;9.148;2022-12-18T09:03:11;16.10;56.10
62589;DHT22;58504;48.770;9.148;2022-12-18T09:05:39;16.10;56.10
62589;DHT22;58504;48.770;9.148;2022-12-18T09:08:06;16.10;56.20
62589;DHT22;58504;48.770;9.148;2022-12-18T09:10:33;16.10;56.10
62589;DHT22;58504;48.770;9.148;2022-12-18T09:13:00;16.10;56.00
62589;DHT22;58504;48.770;9.148;2022-12-18T09:15:26;16.10;56.00
62589;DHT22;58504;48.770;9.148;2022-12-18T09:17:53;16.10;56.00
62589;DHT22;58504;48.770;9.148;2022-12-18T09:20:20;16.10;56.00
62589;DHT22;58504;48.770;9.148;2022-12-18T09:22:48;16.10;56.00
62589;DHT22;58504;48.770;9.148;2022-12-18T09:25:14;16.10;56.00
62589;DHT22;58504;48.770;9.148;2022-12-18T09:27:41;16.10;56.00
62589;DHT22;58504;48.770;9.148;2022-12-18T09:30:09;16.10;56.00
62589;DHT22;58504;48.770;9.148;2022-12-18T09:32:36;16.10;55.90
62589;DHT22;58504;48.770;9.148;2022-12-18T09:35:03;16.10;56.00
62589;DHT22;58504;48.770;9.148;2022-12-18T09:37:30;16.10;56.10
62589;DHT22;58504;48.770;9.148;2022-12-18T09:39:58;16.10;56.00
62589;DHT22;58504;48.770;9.148;2022-12-18T09:42:24;16.10;56.00
62589;DHT22;58504;48.770;9.148;2022-12-18T09:44:53;16.10;56.00
62589;DHT22;58504;48.770;9.148;2022-12-18T09:47:23;16.10;56.00
62589;DHT22;58504;48.770;9.148;2022-12-18T09:49:54;16.10;56.00
62589;DHT22;58504;48.770;9.148;2022-12-18T09:52:25;16.10;55.90
62589;DHT22;58504;48.770;9.148;2022-12-18T09:54:56;16.10;55.80
62589;DHT22;58504;48.770;9.148;2022-12-18T09:57:24;16.10;55.60
62589;DHT22;58504;48.770;9.148;2022-12-18T09:59:55;16.10;55.50
62589;DHT22;58504;48.770;9.148;2022-12-18T10:02:24;16.00;55.40
62589;DHT22;58504;48.770;9.148;2022-12-18T10:05:01;16.00;55.30
62589;DHT22;58504;48.770;9.148;2022-12-18T10:07:40;16.00;55.30
62589;DHT22;58504;48.770;9.148;2022-12-18T10:10:14;16.00;55.20
62589;DHT22;58504;48.770;9.148;2022-12-18T10:12:51;16.00;55.20
62589;DHT22;58504;48.770;9.148;2022-12-18T10:15:26;16.00;55.60
62589;DHT22;58504;48.770;9.148;2022-12-18T10:18:00;16.00;55.80
62589;DHT22;58504;48.770;9.148;2022-12-18T10:20:33;15.90;55.70
62589;DHT22;58504;48.770;9.148;2022-12-18T10:23:09;15.90;55.90
62589;DHT22;58504;48.770;9.148;2022-12-18T10:25:42;15.90;56.10
62589;DHT22;58504;48.770;9.148;2022-12-18T10:28:14;15.90;56.30
62589;DHT22;58504;48.770;9.148;2022-12-18T10:30:42;15.90;56.30
62589;DHT22;58504;48.770;9.148;2022-12-18T10:33:11;15.90;56.40
62589;DHT22;58504;48.770;9.148;2022-12-18T10:35:41;15.90;56.50
62589;DHT22;58504;48.770;9.148;2022-12-18T10:38:22;15.90;56.50
62589;DHT22;58504;48.770;9.148;2022-12-18T10:40:51;15.90;56.50
62589;DHT22;58504;48.770;9.148;2022-12-18T10:43:25;15.90;56.50
62589;DHT22;58504;48.770;9.148;2022-12-18T10:46:01;15.90;56.50
62589;DHT22;58504;48.770;9.148;2022-12-18T10:48:28;15.90;56.80
62589;DHT22;58504;48.770;9.148;2022-12-18T10:50:56;15.90;56.90
62589;DHT22;58504;48.770;9.148;2022-12-18T10:53:25;15.90;57.20
62589;DHT22;58504;48.770;9.148;2022-12-18T10:55:54;16.00;57.20
62589;DHT22;58504;48.770;9.148;2022-12-18T10:58:26;16.00;57.10
62589;DHT22;58504;48.770;9.148;2022-12-18T11:01:05;15.90;56.90
62589;DHT22;58504;48.770;9.148;2022-12-18T11:03:34;16.00;57.10
62589;DHT22;58504;48.770;9.148;2022-12-18T11:06:04;16.00;57.20
62589;DHT22;58504;48.770;9.148;2022-12-18T11:08:31;16.10;57.70
62589;DHT22;58504;48.770;9.148;2022-12-18T11:10:58;16.10;57.10
62589;DHT22;58504;48.770;9.148;2022-12-18T11:13:28;16.20;57.10
62589;DHT22;58504;48.770;9.148;2022-12-18T11:15:56;16.20;57.10
62589;DHT22;58504;48.770;9.148;2022-12-18T11:18:31;16.20;57.10
62589;DHT22;58504;48.770;9.148;2022-12-18T11:21:05;16.30;57.20
62589;DHT22;58504;48.770;9.148;2022-12-18T11:23:33;16.30;57.30
62589;DHT22;58504;48.770;9.148;2022-12-18T11:26:03;16.30;57.20
62589;DHT22;58504;48.770;9.148;2022-12-18T11:28:39;16.30;56.90
62589;DHT22;58504;48.770;9.148;2022-12-18T11:31:18;16.30;56.90
62589;DHT22;58504;48.770;9.148;2022-12-18T11:33:49;16.30;56.90
62589;DHT22;58504;48.770;9.148;2022-12-18T11:36:17;16.20;57.00
62589;DHT22;58504;48.770;9.148;2022-12-18T11:38:45;16.20;56.90
62589;DHT22;58504;48.770;9.148;2022-12-18T11:41:19;16.20;57.00
62589;DHT22;58504;48.770;9.148;2022-12-18T11:43:52;16.20;57.10
62589;DHT22;58504;48.770;9.148;2022-12-18T11:46:26;16.20;57.30
62589;DHT22;58504;48.770;9.148;2022-12-18T11:48:58;16.20;57.30
62589;DHT22;58504;48.770;9.148;2022-12-18T11:51:35;16.20;57.20
62589;DHT22;58504;48.770;9.148;2022-12-18T11:54:10;16.20;57.00
62589;DHT22;58504;48.770;9.148;2022-12-18T11:56:42;16.10;56.70
62589;DHT22;58504;48.770;9.148;2022-12-18T11:59:18;16.10;56.50
62589;DHT22;58504;48.770;9.148;2022-12-18T12:01:50;16.10;56.40
62589;DHT22;58504;48.770;9.148;2022-12-18T12:04:36;16.10;56.40
62589;DHT22;58504;48.770;9.148;2022-12-18T12:07:16;16.10;56.20
62589;DHT22;58504;48.770;9.148;2022-12-18T12:09:49;16.10;56.30
62589;DHT22;58504;48.770;9.148;2022-12-18T12:12:30;16.10;56.30
62589;DHT22;58504;48.770;9.148;2022-12-18T12:15:20;16.10;56.20
62589;DHT22;58504;48.770;9.148;2022-12-18T12:17:52;16.10;56.10
62589;DHT22;58504;48.770;9.148;2022-12-18T12:20:23;16.10;56.00
62589;DHT22;58504;48.770;9.148;2022-12-18T12:22:58;16.10;56.60
62589;DHT22;58504;48.770;9.148;2022-12-18T12:25:35;16.10;56.10
62589;DHT22;58504;48.770;9.148;2022-12-18T12:28:13;16.10;56.00
62589;DHT22;58504;48.770;9.148;2022-12-18T12:30:51;16.10;55.90
62589;DHT22;58504;48.770;9.148;2022-12-18T12:33:31;16.10;55.80
62589;DHT22;58504;48.770;9.148;2022-12-18T12:36:10;16.10;55.80
62589;DHT22;58504;48.770;9.148;2022-12-18T12:38:43;16.10;55.90
62589;DHT22;58504;48.770;9.148;2022-12-18T12:41:13;16.10;56.70
62589;DHT22;58504;48.770;9.148;2022-12-18T12:43:58;16.10;56.60
62589;DHT22;58504;48.770;9.148;2022-12-18T12:46:26;16.20;56.80
62589;DHT22;58504;48.770;9.148;2022-12-18T12:48:56;16.10;56.70
62589;DHT22;58504;48.770;9.148;2022-12-18T12:51:25;16.10;56.50
62589;DHT22;58504;48.770;9.148;2022-12-18T12:53:54;16.20;56.70
62589;DHT22;58504;48.770;9.148;2022-12-18T12:56:25;16.10;56.60
62589;DHT22;58504;48.770;9.148;2022-12-18T12:58:59;16.10;56.50
62589;DHT22;58504;48.770;9.148;2022-12-18T13:01:35;16.10;56.50
62589;DHT22;58504;48.770;9.148;2022-12-18T13:04:15;16.10;56.60
62589;DHT22;58504;48.770;9.148;2022-12-18T13:06:50;16.10;56.50
62589;DHT22;58504;48.770;9.148;2022-12-18T13:09:20;16.10;56.50
62589;DHT22;58504;48.770;9.148;2022-12-18T13:11:47;16.10;56.30
62589;DHT22;58504;48.770;9.148;2022-12-18T13:14:33;16.10;56.30
62589;DHT22;58504;48.770;9.148;2022-12-18T13:17:29;16.10;56.40
62589;DHT22;58504;48.770;9.148;2022-12-18T13:20:08;16.10;56.30
62589;DHT22;58504;48.770;9.148;2022-12-18T13:22:37;16.10;56.80
62589;DHT22;58504;48.770;9.148;2022-12-18T13:25:35;16.10;56.20
62589;DHT22;58504;48.770;9.148;2022-12-18T13:28:10;16.10;56.30
62589;DHT22;58504;48.770;9.148;2022-12-18T13:30:44;16.10;56.90
62589;DHT22;58504;48.770;9.148;2022-12-18T13:33:41;16.10;57.00
62589;DHT22;58504;48.770;9.148;2022-12-18T13:36:25;16.10;57.00
62589;DHT22;58504;48.770;9.148;2022-12-18T13:39:23;16.10;57.00
62589;DHT22;58504;48.770;9.148;2022-12-18T13:41:51;16.20;57.10
62589;DHT22;58504;48.770;9.148;2022-12-18T13:44:28;16.20;57.00
62589;DHT22;58504;48.770;9.148;2022-12-18T13:46:57;16.20;56.90
62589;DHT22;58504;48.770;9.148;2022-12-18T13:49:30;16.20;57.10
62589;DHT22;58504;48.770;9.148;2022-12-18T13:52:02;16.20;57.10
62589;DHT22;58504;48.770;9.148;2022-12-18T13:54:33;16.20;57.20
62589;DHT22;58504;48.770;9.148;2022-12-18T13:57:02;16.20;57.20
62589;DHT22;58504;48.770;9.148;2022-12-18T13:59:34;16.20;56.90
62589;DHT22;58504;48.770;9.148;2022-12-18T14:02:07;16.20;56.80
62589;DHT22;58504;48.770;9.148;2022-12-18T14:04:38;16.20;56.50
62589;DHT22;58504;48.770;9.148;2022-12-18T14:07:06;16.10;56.50
62589;DHT22;58504;48.770;9.148;2022-12-18T14:09:36;16.10;56.70
62589;DHT22;58504;48.770;9.148;2022-12-18T14:12:03;16.10;56.80
62589;DHT22;58504;48.770;9.148;2022-12-18T14:14:50;16.00;56.60
62589;DHT22;58504;48.770;9.148;2022-12-18T14:17:19;16.00;56.50
62589;DHT22;58504;48.770;9.148;2022-12-18T14:19:49;15.90;56.50
62589;DHT22;58504;48.770;9.148;2022-12-18T14:22:18;15.90;56.50
62589;DHT22;58504;48.770;9.148;2022-12-18T14:24:47;15.90;56.60
62589;DHT22;58504;48.770;9.148;2022-12-18T14:27:22;15.90;56.50
62589;DHT22;58504;48.770;9.148;2022-12-18T14:29:50;15.80;56.40
62589;DHT22;58504;48.770;9.148;2022-12-18T14:32:18;15.80;56.40
62589;DHT22;58504;48.770;9.148;2022-12-18T14:34:48;15.80;56.40
62589;DHT22;58504;48.770;9.148;2022-12-18T14:37:17;15.80;56.40
62589;DHT22;58504;48.770;9.148;2022-12-18T14:39:55;15.70;56.40
62589;DHT22;58504;48.770;9.148;2022-12-18T14:42:23;15.80;56.50
62589;DHT22;58504;48.770;9.148;2022-12-18T14:47:53;15.70;56.50
62589;DHT22;58504;48.770;9.148;2022-12-18T14:50:21;15.70;56.70
62589;DHT22;58504;48.770;9.148;2022-12-18T14:52:48;15.70;56.80
62589;DHT22;58504;48.770;9.148;2022-12-18T14:55:16;15.70;56.70
62589;DHT22;58504;48.770;9.148;2022-12-18T14:57:43;15.70;56.60
62589;DHT22;58504;48.770;9.148;2022-12-18T15:00:16;15.70;56.50
62589;DHT22;58504;48.770;9.148;2022-12-18T15:02:45;15.60;56.40
62589;DHT22;58504;48.770;9.148;2022-12-18T15:05:17;15.70;56.40
62589;DHT22;58504;48.770;9.148;2022-12-18T15:07:47;15.60;56.30
62589;DHT22;58504;48.770;9.148;2022-12-18T15:10:16;15.60;56.30
62589;DHT22;58504;48.770;9.148;2022-12-18T15:12:44;15.60;56.30
62589;DHT22;58504;48.770;9.148;2022-12-18T15:15:44;15.60;56.30
62589;DHT22;58504;48.770;9.148;2022-12-18T15:18:13;15.60;56.20
62589;DHT22;58504;48.770;9.148;2022-12-18T15:20:43;15.50;56.10
62589;DHT22;58504;48.770;9.148;2022-12-18T15:23:17;15.50;56.10
62589;DHT22;58504;48.770;9.148;2022-12-18T15:25:46;15.50;56.10
62589;DHT22;58504;48.770;9.148;2022-12-18T15:28:20;15.50;56.10
62589;DHT22;58504;48.770;9.148;2022-12-18T15:31:02;15.40;55.80
62589;DHT22;58504;48.770;9.148;2022-12-18T15:33:33;15.50;56.20
62589;DHT22;58504;48.770;9.148;2022-12-18T15:36:02;15.40;56.70
62589;DHT22;58504;48.770;9.148;2022-12-18T15:38:30;15.40;57.20
62589;DHT22;58504;48.770;9.148;2022-12-18T15:40:57;15.40;57.50
62589;DHT22;58504;48.770;9.148;2022-12-18T15:43:25;15.40;58.90
62589;DHT22;58504;48.770;9.148;2022-12-18T15:46:01;15.50;60.80
62589;DHT22;58504;48.770;9.148;2022-12-18T15:48:27;15.50;62.50
62589;DHT22;58504;48.770;9.148;2022-12-18T15:50:56;15.50;63.30